sensor_id;sensor_type;location;lat;lon;timestamp;temperature;humidity
13211;DHT22;6670;51.53087800;7.23266500;2022-11-20T00:01:33;0.10;99.90
13211;DHT22;6670;51.53087800;7.23266500;2022-11-20T00:04:01;0.00;99.90
13211;DHT22;6670;51.53087800;7.23266500;2022-11-20T00:06:29;0.00;99.90
13211;DHT22;6670;51.53087800;7.23266500;2022-11-20T00:08:59;0.00;99.90
13211;DHT22;6670;51.53087800;7.23266500;2022-11-20T00:11:28;-0.10;99.90
13211;DHT22;6670;51.53087800;7.23266500;2022-11-20T00:13:57;-0.10;99.90
13211;DHT22;6670;51.53087800;7.23266500;2022-11-20T00:16:33;0.00;99.90
13211;DHT22;6670;51.53087800;7.23266500;2022-11-20T00:19:01;0.10;99.90
13211;DHT22;6670;51.53087800;7.23266500;2022-11-20T00:21:29;0.20;99.90
13211;DHT22;6670;51.53087800;7.23266500;2022-11-20T00:23:58;0.20;99.90
13211;DHT22;6670;51.53087800;7.23266500;2022-11-20T00:26:27;0.50;99.90
13211;DHT22;6670;51.53087800;7.23266500;2022-11-20T00:28:56;0.40;99.90
13211;DHT22;6670;51.53087800;7.23266500;2022-11-20T00:31:25;0.50;99.90
13211;DHT22;6670;51.53087800;7.23266500;2022-11-20T00:33:52;0.60;99.90
13211;DHT22;6670;51.53087800;7.23266500;2022-11-20T00:36:22;0.60;99.90
13211;DHT22;6670;51.53087800;7.23266500;2022-11-20T00:38:51;0.50;99.90
13211;DHT22;6670;51.53087800;7.23266500;2022-11-20T00:41:20;0.50;99.90
13211;DHT22;6670;51.53087800;7.23266500;2022-11-20T00:43:48;0.50;99.90
13211;DHT22;6670;51.53087800;7.23266500;2022-11-20T00:46:17;0.40;99.90
13211;DHT22;6670;51.53087800;7.23266500;2022-11-20T00:48:45;0.50;99.90
13211;DHT22;6670;51.53087800;7.23266500;2022-11-20T00:51:14;0.50;99.90
13211;DHT22;6670;51.53087800;7.23266500;2022-11-20T00:53:42;0.60;99.90
13211;DHT22;6670;51.53087800;7.23266500;2022-11-20T00:56:11;0.40;99.90
13211;DHT22;6670;51.53087800;7.23266500;2022-11-20T00:58:42;0.30;99.90
13211;DHT22;6670;51.53087800;7.23266500;2022-11-20T01:01:11;0.30;99.90
13211;DHT22;6670;51.53087800;7.23266500;2022-11-20T01:03:40;0.20;99.90
13211;DHT22;6670;51.53087800;7.23266500;2022-11-20T01:06:11;0.40;99.90
13211;DHT22;6670;51.53087800;7.23266500;2022-11-20T01:08:39;0.50;99.90
13211;DHT22;6670;51.53087800;7.23266500;2022-11-20T01:11:08;0.40;99.90
13211;DHT22;6670;51.53087800;7.23266500;2022-11-20T01:13:36;0.40;99.90
13211;DHT22;6670;51.53087800;7.23266500;2022-11-20T01:16:07;0.50;99.90
13211;DHT22;6670;51.53087800;7.23266500;2022-11-20T01:18:46;0.50;99.90
13211;DHT22;6670;51.53087800;7.23266500;2022-11-20T01:21:16;0.60;99.90
13211;DHT22;6670;51.53087800;7.23266500;2022-11-20T01:23:44;0.70;99.90
13211;DHT22;6670;51.53087800;7.23266500;2022-11-20T01:26:13;0.90;99.90
13211;DHT22;6670;51.53087800;7.23266500;2022-11-20T01:28:41;1.00;99.90
13211;DHT22;6670;51.53087800;7.23266500;2022-11-20T01:31:15;1.10;99.90
13211;DHT22;6670;51.53087800;7.23266500;2022-11-20T01:33:44;0.90;99.90
13211;DHT22;6670;51.53087800;7.23266500;2022-11-20T01:36:13;0.60;99.90
13211;DHT22;6670;51.53087800;7.23266500;2022-11-20T01:38:41;0.30;99.90
13211;DHT22;6670;51.53087800;7.23266500;2022-11-20T01:41:09;0.30;99.90
13211;DHT22;6670;51.53087800;7.23266500;2022-11-20T01:43:36;0.20;99.90
13211;DHT22;6670;51.53087800;7.23266500;2022-11-20T01:46:14;0.30;99.90
13211;DHT22;6670;51.53087800;7.23266500;2022-11-20T01:48:47;0.40;99.90
13211;DHT22;6670;51.53087800;7.23266500;2022-11-20T01:51:21;0.60;99.90
13211;DHT22;6670;51.53087800;7.23266500;2022-11-20T01:53:54;0.60;99.90
13211;DHT22;6670;51.53087800;7.23266500;2022-11-20T01:56:24;0.80;99.90
13211;DHT22;6670;51.53087800;7.23266500;2022-11-20T01:58:55;0.90;99.90
13211;DHT22;6670;51.53087800;7.23266500;2022-11-20T02:01:25;1.00;99.90
13211;DHT22;6670;51.53087800;7.23266500;2022-11-20T02:03:53;0.70;99.90
13211;DHT22;6670;51.53087800;7.23266500;2022-11-20T02:06:24;0.60;99.90
13211;DHT22;6670;51.53087800;7.23266500;2022-11-20T02:08:52;0.50;99.90
13211;DHT22;6670;51.53087800;7.23266500;2022-11-20T02:11:20;0.40;99.90
13211;DHT22;6670;51.53087800;7.23266500;2022-11-20T02:13:48;0.40;99.90
13211;DHT22;6670;51.53087800;7.23266500;2022-11-20T02:16:17;0.40;99.90
13211;DHT22;6670;51.53087800;7.23266500;2022-11-20T02:18:48;0.50;99.90
13211;DHT22;6670;51.53087800;7.23266500;2022-11-20T02:21:33;0.40;99.90
13211;DHT22;6670;51.53087800;7.23266500;2022-11-20T02:24:05;0.10;99.90
13211;DHT22;6670;51.53087800;7.23266500;2022-11-20T02:26:37;0.00;99.90
13211;DHT22;6670;51.53087800;7.23266500;2022-11-20T02:29:05;-0.10;99.90
13211;DHT22;6670;51.53087800;7.23266500;2022-11-20T02:31:38;0.00;99.90
13211;DHT22;6670;51.53087800;7.23266500;2022-11-20T02:34:05;0.20;99.90
13211;DHT22;6670;51.53087800;7.23266500;2022-11-20T02:36:34;0.20;99.90
13211;DHT22;6670;51.53087800;7.23266500;2022-11-20T02:39:04;0.10;99.90
13211;DHT22;6670;51.53087800;7.23266500;2022-11-20T02:41:33;0.20;99.90
13211;DHT22;6670;51.53087800;7.23266500;2022-11-20T02:44:02;0.10;99.90
13211;DHT22;6670;51.53087800;7.23266500;2022-11-20T02:46:30;0.20;99.90
13211;DHT22;6670;51.53087800;7.23266500;2022-11-20T02:48:57;0.20;99.90
13211;DHT22;6670;51.53087800;7.23266500;2022-11-20T02:51:25;0.00;99.90
13211;DHT22;6670;51.53087800;7.23266500;2022-11-20T02:53:52;0.00;99.90
13211;DHT22;6670;51.53087800;7.23266500;2022-11-20T02:56:21;0.10;99.90
13211;DHT22;6670;51.53087800;7.23266500;2022-11-20T02:58:49;0.10;99.90
13211;DHT22;6670;51.53087800;7.23266500;2022-11-20T03:01:16;0.10;99.90
13211;DHT22;6670;51.53087800;7.23266500;2022-11-20T03:03:43;0.00;99.90
13211;DHT22;6670;51.53087800;7.23266500;2022-11-20T03:06:11;-0.20;99.90
13211;DHT22;6670;51.53087800;7.23266500;2022-11-20T03:08:38;-0.20;99.90
13211;DHT22;6670;51.53087800;7.23266500;2022-11-20T03:11:07;-0.40;99.90
13211;DHT22;6670;51.53087800;7.23266500;2022-11-20T03:13:37;-0.50;99.90
13211;DHT22;6670;51.53087800;7.23266500;2022-11-20T03:16:09;-0.40;99.90
13211;DHT22;6670;51.53087800;7.23266500;2022-11-20T03:18:37;-0.50;99.90
13211;DHT22;6670;51.53087800;7.23266500;2022-11-20T03:21:05;-0.40;99.90
13211;DHT22;6670;51.53087800;7.23266500;2022-11-20T03:23:35;-0.30;99.90
13211;DHT22;6670;51.53087800;7.23266500;2022-11-20T03:26:12;-0.40;99.90
13211;DHT22;6670;51.53087800;7.23266500;2022-11-20T03:31:51;-0.50;99.90
13211;DHT22;6670;51.53087800;7.23266500;2022-11-20T03:34:18;-0.60;99.90
13211;DHT22;6670;51.53087800;7.23266500;2022-11-20T03:36:46;-0.50;99.90
13211;DHT22;6670;51.53087800;7.23266500;2022-11-20T03:39:13;-0.40;99.90
13211;DHT22;6670;51.53087800;7.23266500;2022-11-20T03:41:41;-0.40;99.90
13211;DHT22;6670;51.53087800;7.23266500;2022-11-20T03:44:11;-0.30;99.90
13211;DHT22;6670;51.53087800;7.23266500;2022-11-20T03:46:38;-0.20;99.90
13211;DHT22;6670;51.53087800;7.23266500;2022-11-20T03:49:07;-0.20;99.90
13211;DHT22;6670;51.53087800;7.23266500;2022-11-20T03:51:36;-0.30;99.90
13211;DHT22;6670;51.53087800;7.23266500;2022-11-20T03:54:05;-0.30;99.90
13211;DHT22;6670;51.53087800;7.23266500;2022-11-20T03:56:35;-0.30;99.90
13211;DHT22;6670;51.53087800;7.23266500;2022-11-20T03:59:03;-0.30;99.90
13211;DHT22;6670;51.53087800;7.23266500;2022-11-20T04:01:33;-0.30;99.90
13211;DHT22;6670;51.53087800;7.23266500;2022-11-20T04:04:00;-0.40;99.90
13211;DHT22;6670;51.53087800;7.23266500;2022-11-20T04:06:34;-0.40;99.90
13211;DHT22;6670;51.53087800;7.23266500;2022-11-20T04:09:01;-0.20;99.90
13211;DHT22;6670;51.53087800;7.23266500;2022-11-20T04:11:30;-0.20;99.90
13211;DHT22;6670;51.53087800;7.23266500;2022-11-20T04:13:59;-0.30;99.90
13211;DHT22;6670;51.53087800;7.23266500;2022-11-20T04:16:29;-0.40;99.90
13211;DHT22;6670;51.53087800;7.23266500;2022-11-20T04:18:58;-0.50;99.90
13211;DHT22;6670;51.53087800;7.23266500;2022-11-20T04:21:26;-0.50;99.90
13211;DHT22;6670;51.53087800;7.23266500;2022-11-20T04:23:56;-0.40;99.90
13211;DHT22;6670;51.53087800;7.23266500;2022-11-20T04:26:25;-0.20;99.90
13211;DHT22;6670;51.53087800;7.23266500;2022-11-20T04:28:53;-0.10;99.90
13211;DHT22;6670;51.53087800;7.23266500;2022-11-20T04:31:22;-0.10;99.90
13211;DHT22;6670;51.53087800;7.23266500;2022-11-20T04:33:50;-0.30;99.90
13211;DHT22;6670;51.53087800;7.23266500;2022-11-20T04:36:19;-0.20;99.90
13211;DHT22;6670;51.53087800;7.23266500;2022-11-20T04:38:50;-0.20;99.90
13211;DHT22;6670;51.53087800;7.23266500;2022-11-20T04:41:32;-0.20;99.90
13211;DHT22;6670;51.53087800;7.23266500;2022-11-20T04:44:02;-0.10;99.90
13211;DHT22;6670;51.53087800;7.23266500;2022-11-20T04:46:31;0.10;99.90
13211;DHT22;6670;51.53087800;7.23266500;2022-11-20T04:48:59;0.00;99.90
13211;DHT22;6670;51.53087800;7.23266500;2022-11-20T04:51:27;0.00;99.90
13211;DHT22;6670;51.53087800;7.23266500;2022-11-20T04:53:54;0.00;99.90
13211;DHT22;6670;51.53087800;7.23266500;2022-11-20T04:56:22;-0.10;99.90
13211;DHT22;6670;51.53087800;7.23266500;2022-11-20T04:58:51;-0.10;99.90
13211;DHT22;6670;51.53087800;7.23266500;2022-11-20T05:01:20;-0.20;99.90
13211;DHT22;6670;51.53087800;7.23266500;2022-11-20T05:03:48;0.00;99.90
13211;DHT22;6670;51.53087800;7.23266500;2022-11-20T05:06:18;0.00;99.90
13211;DHT22;6670;51.53087800;7.23266500;2022-11-20T05:08:46;0.00;99.90
13211;DHT22;6670;51.53087800;7.23266500;2022-11-20T05:11:15;-0.10;99.90
13211;DHT22;6670;51.53087800;7.23266500;2022-11-20T05:13:42;-0.20;99.90
13211;DHT22;6670;51.53087800;7.23266500;2022-11-20T05:16:12;0.00;99.90
13211;DHT22;6670;51.53087800;7.23266500;2022-11-20T05:18:41;0.10;99.90
13211;DHT22;6670;51.53087800;7.23266500;2022-11-20T05:21:09;0.20;99.90
13211;DHT22;6670;51.53087800;7.23266500;2022-11-20T05:23:38;0.10;99.90
13211;DHT22;6670;51.53087800;7.23266500;2022-11-20T05:26:06;0.00;99.90
13211;DHT22;6670;51.53087800;7.23266500;2022-11-20T05:28:34;0.00;99.90
13211;DHT22;6670;51.53087800;7.23266500;2022-11-20T05:31:06;0.10;99.90
13211;DHT22;6670;51.53087800;7.23266500;2022-11-20T05:33:36;0.10;99.90
13211;DHT22;6670;51.53087800;7.23266500;2022-11-20T05:36:15;0.10;99.90
13211;DHT22;6670;51.53087800;7.23266500;2022-11-20T05:38:43;0.10;99.90
13211;DHT22;6670;51.53087800;7.23266500;2022-11-20T05:41:13;0.10;99.90
13211;DHT22;6670;51.53087800;7.23266500;2022-11-20T05:43:42;0.30;99.90
13211;DHT22;6670;51.53087800;7.23266500;2022-11-20T05:46:12;0.20;99.90
13211;DHT22;6670;51.53087800;7.23266500;2022-11-20T05:48:43;0.10;99.90
13211;DHT22;6670;51.53087800;7.23266500;2022-11-20T05:51:12;0.10;99.90
13211;DHT22;6670;51.53087800;7.23266500;2022-11-20T05:53:40;0.10;99.90
13211;DHT22;6670;51.53087800;7.23266500;2022-11-20T05:56:10;-0.10;99.90
13211;DHT22;6670;51.53087800;7.23266500;2022-11-20T05:58:38;0.10;99.90
13211;DHT22;6670;51.53087800;7.23266500;2022-11-20T06:01:08;0.20;99.90
13211;DHT22;6670;51.53087800;7.23266500;2022-11-20T06:03:36;0.30;99.90
13211;DHT22;6670;51.53087800;7.23266500;2022-11-20T06:06:05;0.30;99.90
13211;DHT22;6670;51.53087800;7.23266500;2022-11-20T06:08:34;0.30;99.90
13211;DHT22;6670;51.53087800;7.23266500;2022-11-20T06:11:05;0.20;99.90
13211;DHT22;6670;51.53087800;7.23266500;2022-11-20T06:13:33;0.30;99.90
13211;DHT22;6670;51.53087800;7.23266500;2022-11-20T06:16:00;0.10;99.90
13211;DHT22;6670;51.53087800;7.23266500;2022-11-20T06:18:29;0.20;99.90
13211;DHT22;6670;51.53087800;7.23266500;2022-11-20T06:21:01;0.30;99.90
13211;DHT22;6670;51.53087800;7.23266500;2022-11-20T06:23:31;0.20;99.90
13211;DHT22;6670;51.53087800;7.23266500;2022-11-20T06:26:01;0.30;99.90
13211;DHT22;6670;51.53087800;7.23266500;2022-11-20T06:28:29;0.20;99.90
13211;DHT22;6670;51.53087800;7.23266500;2022-11-20T06:30:57;0.20;99.90
13211;DHT22;6670;51.53087800;7.23266500;2022-11-20T06:33:24;0.20;99.90
13211;DHT22;6670;51.53087800;7.23266500;2022-11-20T06:35:55;1.00;99.90
13211;DHT22;6670;51.53087800;7.23266500;2022-11-20T06:38:23;1.00;99.90
13211;DHT22;6670;51.53087800;7.23266500;2022-11-20T06:40:52;0.90;99.90
13211;DHT22;6670;51.53087800;7.23266500;2022-11-20T06:44:04;0.50;99.90
13211;DHT22;6670;51.53087800;7.23266500;2022-11-20T06:46:28;0.30;99.90
13211;DHT22;6670;51.53087800;7.23266500;2022-11-20T06:48:55;0.30;99.90
13211;DHT22;6670;51.53087800;7.23266500;2022-11-20T06:51:24;0.10;99.90
13211;DHT22;6670;51.53087800;7.23266500;2022-11-20T06:53:51;-0.10;99.90
13211;DHT22;6670;51.53087800;7.23266500;2022-11-20T06:56:21;-0.10;99.90
13211;DHT22;6670;51.53087800;7.23266500;2022-11-20T06:58:49;-0.10;99.90
13211;DHT22;6670;51.53087800;7.23266500;2022-11-20T07:01:16;-0.20;99.90
13211;DHT22;6670;51.53087800;7.23266500;2022-11-20T07:03:44;-0.10;99.90
13211;DHT22;6670;51.53087800;7.23266500;2022-11-20T07:06:12;-0.30;99.90
13211;DHT22;6670;51.53087800;7.23266500;2022-11-20T07:08:40;-0.20;99.90
13211;DHT22;6670;51.53087800;7.23266500;2022-11-20T07:11:07;-0.20;99.90
13211;DHT22;6670;51.53087800;7.23266500;2022-11-20T07:13:36;-0.30;99.90
13211;DHT22;6670;51.53087800;7.23266500;2022-11-20T07:16:06;-0.30;99.90
13211;DHT22;6670;51.53087800;7.23266500;2022-11-20T07:18:34;-0.30;99.90
13211;DHT22;6670;51.53087800;7.23266500;2022-11-20T07:21:05;-0.30;99.90
13211;DHT22;6670;51.53087800;7.23266500;2022-11-20T07:23:33;-0.40;99.90
13211;DHT22;6670;51.53087800;7.23266500;2022-11-20T07:26:03;-0.20;99.90
13211;DHT22;6670;51.53087800;7.23266500;2022-11-20T07:28:32;-0.20;99.90
13211;DHT22;6670;51.53087800;7.23266500;2022-11-20T07:31:01;-0.20;99.90
13211;DHT22;6670;51.53087800;7.23266500;2022-11-20T07:33:30;-0.30;99.90
13211;DHT22;6670;51.53087800;7.23266500;2022-11-20T07:35:58;-0.20;99.90
13211;DHT22;6670;51.53087800;7.23266500;2022-11-20T07:38:26;-0.20;99.90
13211;DHT22;6670;51.53087800;7.23266500;2022-11-20T07:40:54;-0.20;99.90
13211;DHT22;6670;51.53087800;7.23266500;2022-11-20T07:43:23;0.00;99.90
13211;DHT22;6670;51.53087800;7.23266500;2022-11-20T07:45:51;0.10;99.90
13211;DHT22;6670;51.53087800;7.23266500;2022-11-20T07:48:20;0.20;99.90
13211;DHT22;6670;51.53087800;7.23266500;2022-11-20T07:50:47;0.20;99.90
13211;DHT22;6670;51.53087800;7.23266500;2022-11-20T07:53:15;0.10;99.90
13211;DHT22;6670;51.53087800;7.23266500;2022-11-20T07:55:46;0.20;99.90
13211;DHT22;6670;51.53087800;7.23266500;2022-11-20T07:58:14;0.20;99.90
13211;DHT22;6670;51.53087800;7.23266500;2022-11-20T08:00:44;0.20;99.90
13211;DHT22;6670;51.53087800;7.23266500;2022-11-20T08:03:11;0.30;99.90
13211;DHT22;6670;51.53087800;7.23266500;2022-11-20T08:05:41;0.30;99.90
13211;DHT22;6670;51.53087800;7.23266500;2022-11-20T08:08:09;0.40;99.90
13211;DHT22;6670;51.53087800;7.23266500;2022-11-20T08:10:37;0.40;99.90
13211;DHT22;6670;51.53087800;7.23266500;2022-11-20T08:13:04;0.40;99.90
13211;DHT22;6670;51.53087800;7.23266500;2022-11-20T08:15:50;0.40;99.90
13211;DHT22;6670;51.53087800;7.23266500;2022-11-20T08:18:18;0.50;99.90
13211;DHT22;6670;51.53087800;7.23266500;2022-11-20T08:20:46;0.60;99.90
13211;DHT22;6670;51.53087800;7.23266500;2022-11-20T08:23:14;0.70;99.90
13211;DHT22;6670;51.53087800;7.23266500;2022-11-20T08:25:41;0.90;99.90
13211;DHT22;6670;51.53087800;7.23266500;2022-11-20T08:28:09;1.20;99.90
13211;DHT22;6670;51.53087800;7.23266500;2022-11-20T08:30:37;1.40;99.90
13211;DHT22;6670;51.53087800;7.23266500;2022-11-20T08:33:06;1.50;99.90
13211;DHT22;6670;51.53087800;7.23266500;2022-11-20T08:35:35;1.70;99.90
13211;DHT22;6670;51.53087800;7.23266500;2022-11-20T08:38:05;1.60;99.90
13211;DHT22;6670;51.53087800;7.23266500;2022-11-20T08:40:33;1.80;99.90
13211;DHT22;6670;51.53087800;7.23266500;2022-11-20T08:43:02;1.70;99.90
13211;DHT22;6670;51.53087800;7.23266500;2022-11-20T08:45:30;1.90;99.90
13211;DHT22;6670;51.53087800;7.23266500;2022-11-20T08:48:00;2.00;99.90
13211;DHT22;6670;51.53087800;7.23266500;2022-11-20T08:50:32;1.90;99.90
13211;DHT22;6670;51.53087800;7.23266500;2022-11-20T08:53:02;2.10;99.90
13211;DHT22;6670;51.53087800;7.23266500;2022-11-20T08:55:33;2.10;99.90
13211;DHT22;6670;51.53087800;7.23266500;2022-11-20T08:58:03;2.30;99.90
13211;DHT22;6670;51.53087800;7.23266500;2022-11-20T09:00:30;2.40;99.90
13211;DHT22;6670;51.53087800;7.23266500;2022-11-20T09:02:59;2.50;99.90
13211;DHT22;6670;51.53087800;7.23266500;2022-11-20T09:05:27;2.60;99.90
13211;DHT22;6670;51.53087800;7.23266500;2022-11-20T09:07:56;2.70;99.90
13211;DHT22;6670;51.53087800;7.23266500;2022-11-20T09:10:24;2.70;99.90
13211;DHT22;6670;51.53087800;7.23266500;2022-11-20T09:12:53;2.70;99.90
13211;DHT22;6670;51.53087800;7.23266500;2022-11-20T09:15:21;2.80;99.90
13211;DHT22;6670;51.53087800;7.23266500;2022-11-20T09:17:52;3.00;99.90
13211;DHT22;6670;51.53087800;7.23266500;2022-11-20T09:20:21;3.20;99.90
13211;DHT22;6670;51.53087800;7.23266500;2022-11-20T09:22:49;3.40;99.90
13211;DHT22;6670;51.53087800;7.23266500;2022-11-20T09:25:19;3.40;99.90
13211;DHT22;6670;51.53087800;7.23266500;2022-11-20T09:27:47;3.50;99.90
13211;DHT22;6670;51.53087800;7.23266500;2022-11-20T09:30:16;3.70;99.90
13211;DHT22;6670;51.53087800;7.23266500;2022-11-20T09:32:45;3.90;99.90
13211;DHT22;6670;51.53087800;7.23266500;2022-11-20T09:35:13;4.10;99.90
13211;DHT22;6670;51.53087800;7.23266500;2022-11-20T09:37:41;4.20;99.90
13211;DHT22;6670;51.53087800;7.23266500;2022-11-20T09:40:19;4.30;99.90
13211;DHT22;6670;51.53087800;7.23266500;2022-11-20T09:42:52;4.40;99.90
13211;DHT22;6670;51.53087800;7.23266500;2022-11-20T09:45:29;4.40;99.90
13211;DHT22;6670;51.53087800;7.23266500;2022-11-20T09:48:24;4.50;99.90
13211;DHT22;6670;51.53087800;7.23266500;2022-11-20T09:50:58;6.30;99.90
13211;DHT22;6670;51.53087800;7.23266500;2022-11-20T09:53:35;7.00;99.90
13211;DHT22;6670;51.53087800;7.23266500;2022-11-20T09:56:09;7.40;99.90
13211;DHT22;6670;51.53087800;7.23266500;2022-11-20T09:58:41;6.00;99.90
13211;DHT22;6670;51.53087800;7.23266500;2022-11-20T10:01:15;5.10;99.90
13211;DHT22;6670;51.53087800;7.23266500;2022-11-20T10:03:51;4.70;99.90
13211;DHT22;6670;51.53087800;7.23266500;2022-11-20T10:06:30;4.60;99.90
13211;DHT22;6670;51.53087800;7.23266500;2022-11-20T10:09:14;4.50;99.90
13211;DHT22;6670;51.53087800;7.23266500;2022-11-20T10:11:51;4.40;99.90
13211;DHT22;6670;51.53087800;7.23266500;2022-11-20T10:14:29;4.40;99.90
13211;DHT22;6670;51.53087800;7.23266500;2022-11-20T10:17:04;4.50;99.90
13211;DHT22;6670;51.53087800;7.23266500;2022-11-20T10:19:56;4.30;99.90
13211;DHT22;6670;51.53087800;7.23266500;2022-11-20T10:22:38;4.10;99.90
13211;DHT22;6670;51.53087800;7.23266500;2022-11-20T10:25:14;4.00;99.90
13211;DHT22;6670;51.53087800;7.23266500;2022-11-20T10:28:21;4.00;99.90
13211;DHT22;6670;51.53087800;7.23266500;2022-11-20T10:31:00;3.80;99.90
13211;DHT22;6670;51.53087800;7.23266500;2022-11-20T10:33:34;4.00;99.90
13211;DHT22;6670;51.53087800;7.23266500;2022-11-20T10:36:11;4.10;99.90
13211;DHT22;6670;51.53087800;7.23266500;2022-11-20T10:38:44;3.90;99.90
13211;DHT22;6670;51.53087800;7.23266500;2022-11-20T10:41:17;3.80;99.90
13211;DHT22;6670;51.53087800;7.23266500;2022-11-20T10:43:59;3.80;99.90
13211;DHT22;6670;51.53087800;7.23266500;2022-11-20T10:46:35;4.10;99.90
13211;DHT22;6670;51.53087800;7.23266500;2022-11-20T10:49:11;4.10;99.90
13211;DHT22;6670;51.53087800;7.23266500;2022-11-20T10:51:46;4.20;99.90
13211;DHT22;6670;51.53087800;7.23266500;2022-11-20T10:54:22;4.10;99.90
13211;DHT22;6670;51.53087800;7.23266500;2022-11-20T10:56:52;4.20;99.90
13211;DHT22;6670;51.53087800;7.23266500;2022-11-20T10:59:55;4.30;99.90
13211;DHT22;6670;51.53087800;7.23266500;2022-11-20T11:02:34;4.20;99.90
13211;DHT22;6670;51.53087800;7.23266500;2022-11-20T11:05:12;4.30;99.90
13211;DHT22;6670;51.53087800;7.23266500;2022-11-20T11:07:42;4.30;99.90
13211;DHT22;6670;51.53087800;7.23266500;2022-11-20T11:10:16;4.50;99.90
13211;DHT22;6670;51.53087800;7.23266500;2022-11-20T11:12:46;4.40;99.90
13211;DHT22;6670;51.53087800;7.23266500;2022-11-20T11:15:25;4.50;99.90
13211;DHT22;6670;51.53087800;7.23266500;2022-11-20T11:17:53;4.60;99.90
13211;DHT22;6670;51.53087800;7.23266500;2022-11-20T11:20:23;4.60;99.90
13211;DHT22;6670;51.53087800;7.23266500;2022-11-20T11:22:54;4.70;99.90
13211;DHT22;6670;51.53087800;7.23266500;2022-11-20T11:25:25;4.70;99.90
13211;DHT22;6670;51.53087800;7.23266500;2022-11-20T11:27:57;4.70;99.90
13211;DHT22;6670;51.53087800;7.23266500;2022-11-20T11:30:26;4.70;99.90
13211;DHT22;6670;51.53087800;7.23266500;2022-11-20T11:33:06;4.80;99.90
13211;DHT22;6670;51.53087800;7.23266500;2022-11-20T11:35:44;4.80;99.90
13211;DHT22;6670;51.53087800;7.23266500;2022-11-20T11:38:15;4.80;99.90
13211;DHT22;6670;51.53087800;7.23266500;2022-11-20T11:40:56;4.80;99.90
13211;DHT22;6670;51.53087800;7.23266500;2022-11-20T11:43:26;4.80;99.90
13211;DHT22;6670;51.53087800;7.23266500;2022-11-20T11:46:27;4.80;99.90
13211;DHT22;6670;51.53087800;7.23266500;2022-11-20T11:48:57;5.00;99.90
13211;DHT22;6670;51.53087800;7.23266500;2022-11-20T11:51:31;5.00;99.90
13211;DHT22;6670;51.53087800;7.23266500;2022-11-20T11:54:00;4.90;99.90
13211;DHT22;6670;51.53087800;7.23266500;2022-11-20T11:56:30;4.80;99.90
13211;DHT22;6670;51.53087800;7.23266500;2022-11-20T11:59:05;4.80;99.90
13211;DHT22;6670;51.53087800;7.23266500;2022-11-20T12:01:37;4.90;99.90
13211;DHT22;6670;51.53087800;7.23266500;2022-11-20T12:04:16;5.00;99.90
13211;DHT22;6670;51.53087800;7.23266500;2022-11-20T12:06:48;5.00;99.90
13211;DHT22;6670;51.53087800;7.23266500;2022-11-20T12:09:18;5.20;99.90
13211;DHT22;6670;51.53087800;7.23266500;2022-11-20T12:11:52;5.10;99.90
13211;DHT22;6670;51.53087800;7.23266500;2022-11-20T12:14:27;5.10;99.90
13211;DHT22;6670;51.53087800;7.23266500;2022-11-20T12:17:00;5.10;99.90
13211;DHT22;6670;51.53087800;7.23266500;2022-11-20T12:19:30;5.10;99.90
13211;DHT22;6670;51.53087800;7.23266500;2022-11-20T12:22:05;5.10;99.90
13211;DHT22;6670;51.53087800;7.23266500;2022-11-20T12:24:44;5.10;99.90
13211;DHT22;6670;51.53087800;7.23266500;2022-11-20T12:27:41;5.10;99.90
13211;DHT22;6670;51.53087800;7.23266500;2022-11-20T12:30:13;4.90;99.90
13211;DHT22;6670;51.53087800;7.23266500;2022-11-20T12:33:08;4.90;99.90
13211;DHT22;6670;51.53087800;7.23266500;2022-11-20T12:36:01;5.10;99.90
13211;DHT22;6670;51.53087800;7.23266500;2022-11-20T12:38:51;5.10;99.90
13211;DHT22;6670;51.53087800;7.23266500;2022-11-20T12:41:33;5.10;99.90
13211;DHT22;6670;51.53087800;7.23266500;2022-11-20T12:44:41;5.10;99.90
13211;DHT22;6670;51.53087800;7.23266500;2022-11-20T12:47:47;4.90;99.90
13211;DHT22;6670;51.53087800;7.23266500;2022-11-20T12:50:24;4.90;99.90
13211;DHT22;6670;51.53087800;7.23266500;2022-11-20T12:52:57;4.80;99.90
13211;DHT22;6670;51.53087800;7.23266500;2022-11-20T12:55:40;5.00;99.90
13211;DHT22;6670;51.53087800;7.23266500;2022-11-20T12:58:15;5.00;99.90
13211;DHT22;6670;51.53087800;7.23266500;2022-11-20T13:00:58;4.80;99.90
13211;DHT22;6670;51.53087800;7.23266500;2022-11-20T13:03:38;4.70;99.90
13211;DHT22;6670;51.53087800;7.23266500;2022-11-20T13:06:13;4.80;99.90
13211;DHT22;6670;51.53087800;7.23266500;2022-11-20T13:08:42;4.80;99.90
13211;DHT22;6670;51.53087800;7.23266500;2022-11-20T13:11:18;4.90;99.90
13211;DHT22;6670;51.53087800;7.23266500;2022-11-20T13:14:09;5.00;99.90
13211;DHT22;6670;51.53087800;7.23266500;2022-11-20T13:16:46;4.80;99.90
13211;DHT22;6670;51.53087800;7.23266500;2022-11-20T13:19:17;4.90;99.90
13211;DHT22;6670;51.53087800;7.23266500;2022-11-20T13:21:46;4.90;99.90
13211;DHT22;6670;51.53087800;7.23266500;2022-11-20T13:24:26;5.00;99.90
13211;DHT22;6670;51.53087800;7.23266500;2022-11-20T13:27:20;5.00;99.90
13211;DHT22;6670;51.53087800;7.23266500;2022-11-20T13:29:59;5.00;99.90
13211;DHT22;6670;51.53087800;7.23266500;2022-11-20T13:32:28;5.00;99.90
13211;DHT22;6670;51.53087800;7.23266500;2022-11-20T13:34:59;5.00;99.90
13211;DHT22;6670;51.53087800;7.23266500;2022-11-20T13:37:30;5.10;99.90
13211;DHT22;6670;51.53087800;7.23266500;2022-11-20T13:40:21;5.00;99.90
13211;DHT22;6670;51.53087800;7.23266500;2022-11-20T13:43:01;4.90;99.90
13211;DHT22;6670;51.53087800;7.23266500;2022-11-20T13:45:30;5.10;99.90
13211;DHT22;6670;51.53087800;7.23266500;2022-11-20T13:48:02;5.90;99.90
13211;DHT22;6670;51.53087800;7.23266500;2022-11-20T13:50:42;6.30;99.90
13211;DHT22;6670;51.53087800;7.23266500;2022-11-20T13:53:27;5.80;99.90
13211;DHT22;6670;51.53087800;7.23266500;2022-11-20T13:56:01;5.40;99.90
13211;DHT22;6670;51.53087800;7.23266500;2022-11-20T13:58:43;5.30;99.90
13211;DHT22;6670;51.53087800;7.23266500;2022-11-20T14:01:16;5.30;99.90
13211;DHT22;6670;51.53087800;7.23266500;2022-11-20T14:03:44;5.20;99.90
13211;DHT22;6670;51.53087800;7.23266500;2022-11-20T14:06:16;5.20;99.90
13211;DHT22;6670;51.53087800;7.23266500;2022-11-20T14:08:48;5.20;99.90
13211;DHT22;6670;51.53087800;7.23266500;2022-11-20T14:11:18;5.30;99.90
13211;DHT22;6670;51.53087800;7.23266500;2022-11-20T14:13:58;5.20;99.90